Create Custom Reports and Graphics: Custom Report

Upper Lake

Current Conditions

4/19/21 6:15 PM (-07:00)
Updated Every 15 Minutes
Temp 71.4 °F   5.4
RH 26 %   11
Dew Pt 34.5 °F   9.5
Wet Bulb 51.7 °F   1.0
Wind Dir WNW | 292 °
Wind Spd 11.1 mph   3.3
Wind Gust 20.6 mph   2.4
BatVolt 13.2 V   0.1
Monthly Rain 0.00 In
Seasonal Rainfall 12.80 In

Today & Yesterday

Midnight to Midnight

4/19/21 6:15 PM (-07:00)
Updated Every 15 Minutes
Daily Max Temp 79.0 °F   3.7
Time of Max Temp 1424
Daily Min Temp 38.2 °F   2.5
Time of Min Temp 0648
Daily Max Wind 24.4 mph   1.6
Time of Max Wind 1615
Max Wind Dir NW | 309 °
Daily Rain 0.00 In
Daily Leaf Wet Hrs 0.0 hrs   0.0
Yesterday's Max Temp 82.7 °F
Yesterday’s Min Temp 35.7 °F
Yesterday's Max Wind 22.8 mph
Yesterday's Rainfall 0.00 In
Leaf Wet Hrs Yest 0.0 Hours

Last 30 Days

Upper Lake

Daily Data | America/Los_Angeles
as of 4/19/21 6:22 PM PDT
Date Daily Max Temp (°F) Time of Max Temp Daily Min Temp (°F) Time of Min Temp Daily Rain (In) Monthly Rain (In) Seasonal Rainfall (In) Wind Spd (mph) Daily Max Wind (mph) Time of Max Wind Max Wind Dir (°) Dew Pt (°F) Max RH (%) Min RH (%) Hrs <= 32F (hrs) Hrs <= 28F (hrs) Daily Leaf Wet Hrs (hrs) Degree Hrs (hrs) Hrs 70-85F (hrs) Hrs > 95F (hrs) Powdery Mildew Stress (pts) Daily Max Rain Intensity (In/Hr) Time of Max Rain Intensity Max 1 Min Rain (In) Max 1 Min Rain Time Max 15 Min Rain (In) Max 15 Min Precip Time Max 60 Min Rain (In) Max 60 Min Rain Time Bat Volt Min Day (V)
4/18/21 82.7 1423 35.7 0634 0.00 0.00 12.80 4.3 22.8 1704 NNW | 330 32.5 98 8 0.0 0.0 0.0 125.2 9.53 0.00 50 - - - - - - - - 12.3
4/17/21 79.9 1649 38.5 0549 0.00 0.00 12.80 3.8 17.4 1309 NNE | 30 32.0 100 5 0.0 0.0 1.4 107.7 9.08 0.00 30 - - - - - - - - 12.3
4/16/21 77.0 1500 37.1 0639 0.00 0.00 12.80 3.6 21.7 1716 WNW | 286 37.3 100 15 0.0 0.0 4.4 60.8 6.44 0.00 10 - - - - - - - - 12.3
4/15/21 72.8 1645 33.9 0654 0.00 0.00 12.80 3.2 18.2 1852 NW | 312 33.6 99 12 0.0 0.0 0.0 29.9 3.58 0.00 20 - - - - - - - - 12.3
4/14/21 69.8 1450 34.2 0649 0.00 0.00 12.80 3.8 24.8 1622 WNW | 300 29.7 94 15 0.0 0.0 0.0 6.2 0.00 0.00 30 - - - - - - - - 12.3
4/13/21 71.4 1539 39.6 0536 0.00 0.00 12.80 6.5 27.0 0902 WNW | 300 30.6 91 15 0.0 0.0 0.0 21.6 1.81 0.00 40 - - - - - - - - 12.3
4/12/21 80.0 1444 36.7 0634 0.00 0.00 12.80 3.3 19.5 1709 NNW | 334 36.0 100 13 0.0 0.0 3.4 87.6 7.88 0.00 20 - - - - - - - - 12.3
4/11/21 80.2 1701 34.1 0709 0.00 0.00 12.80 2.9 14.8 1843 W | 279 38.6 100 14 0.0 0.0 4.0 81.3 7.45 0.00 0 - - - - - - - - 12.2
4/10/21 73.6 1552 35.4 0633 0.00 0.00 12.80 6.7 26.4 1354 NW | 312 37.5 100 16 0.0 0.0 4.5 34.6 3.92 0.00 0 - - - - - - - - 12.3
4/9/21 70.4 1450 35.8 0557 0.00 0.00 12.80 6.0 26.3 1732 NW | 310 40.0 100 29 0.0 0.0 1.2 15.5 0.27 0.00 0 - - - - - - - - 12.4
4/8/21 70.4 1503 32.1 0641 0.00 0.00 12.80 4.6 23.6 1706 WNW | 293 35.1 100 15 0.0 0.0 6.0 19.0 0.23 0.00 10 - - - - - - - - 12.3
4/7/21 66.7 1513 35.3 0611 0.00 0.00 12.80 6.5 22.4 1521 NW | 325 36.5 100 14 0.0 0.0 5.3 1.5 0.00 0.00 20 - - - - - - - - 12.3
4/6/21 75.5 1534 36.6 0655 0.00 0.00 12.80 3.2 16.4 1930 WNW | 294 40.6 100 9 0.0 0.0 7.3 45.2 4.69 0.00 30 - - - - - - - - 12.3
4/5/21 71.0 1635 39.2 0246 0.00 0.00 12.80 3.8 19.4 1802 NW | 310 43.5 100 34 0.0 0.0 2.8 11.8 0.16 0.00 40 - - - - - - - - 12.3
4/4/21 67.8 1546 40.7 0041 0.00 0.00 12.80 4.9 21.6 1923 WNW | 286 43.1 99 35 0.0 0.0 0.0 3.7 0.00 0.00 50 - - - - - - - - 12.3
4/3/21 67.3 1535 32.3 0646 0.00 0.00 12.80 4.3 19.7 2154 W | 274 39.2 100 28 0.0 0.0 2.4 1.2 0.00 0.00 60 - - - - - - - - 12.3
4/2/21 76.5 1652 32.2 0651 0.00 0.00 12.80 2.5 14.7 1348 ESE | 123 31.7 98 8 0.0 0.0 0.0 56.1 6.59 0.00 0 - - - - - - - - 12.3
4/1/21 78.8 1516 34.9 0705 0.00 0.00 12.80 2.7 18.5 1818 NW | 314 33.6 100 9 0.0 0.0 2.0 76.6 6.92 0.00 0 - - - - - - - - 12.3
3/31/21 77.6 1710 34.0 0724 0.00 2.75 12.80 3.3 14.7 1316 SSE | 155 31.0 94 10 0.0 0.0 0.0 70.7 7.43 0.00 0 - - - - - - - - 12.3
3/30/21 77.5 1537 31.0 0721 0.00 2.75 12.80 2.7 12.4 1411 SSE | 168 28.3 100 6 1.4 0.0 4.5 52.5 5.36 0.00 0 - - - - - - - - 12.3
3/29/21 69.4 1643 36.1 0710 0.00 2.75 12.80 3.7 19.4 0724 WNW | 302 35.4 98 18 0.0 0.0 0.0 11.4 0.00 0.00 0 - - - - - - - - 12.3
3/28/21 75.9 1514 34.3 0634 0.00 2.75 12.80 3.4 20.1 1728 NW | 323 35.8 100 13 0.0 0.0 1.9 48.0 4.96 0.00 0 - - - - - - - - 12.3
3/27/21 77.8 1607 32.4 0655 0.00 2.75 12.80 3.1 19.0 1814 WNW | 294 34.9 100 13 0.0 0.0 5.5 60.9 5.86 0.00 0 - - - - - - - - 12.3
3/26/21 69.6 1702 29.8 0723 0.00 2.75 12.80 3.0 15.7 1328 ESE | 110 31.8 100 13 2.7 0.0 5.1 6.8 0.00 0.00 0 - - - - - - - - 12.4
3/25/21 59.5 1444 35.7 0048 0.00 2.75 12.80 8.8 26.2 0305 NW | 306 37.0 99 35 0.0 0.0 0.0 0.0 0.00 0.00 0 - - - - - - - - 12.4
3/24/21 66.3 1435 31.3 0712 0.01 2.75 12.80 6.6 29.7 1747 NNW | 330 30.9 89 12 0.4 0.0 0.0 0.4 0.00 0.00 0 0.01 0828 0.01 0829 0.01 0829 0.01 0829 12.4
3/23/21 63.6 1604 31.0 0734 0.00 2.74 12.79 4.8 23.2 1216 ENE | 62 26.6 100 10 0.8 0.0 0.2 0.0 0.00 0.00 0 - - - - - - - - 12.4
3/22/21 58.8 1627 39.1 0222 0.00 2.74 12.79 10.1 28.4 0850 WNW | 282 38.1 95 44 0.0 0.0 0.0 0.0 0.00 0.00 0 - - - - - - - - 12.3
3/21/21 60.9 1629 29.0 0654 0.00 2.74 12.79 5.5 23.1 1649 W | 279 35.0 100 27 3.8 0.0 4.2 0.0 0.00 0.00 0 - - - - - - - - 12.4
3/20/21 56.2 1557 31.5 0716 0.00 2.74 12.79 5.8 22.9 1813 NW | 319 35.3 100 37 0.9 0.0 1.4 0.0 0.00 0.00 0 - - - - - - - - 12.4
Max 82.7 - 40.7 - 0.01 2.75 - 10.1 29.7 - - 43.5 100 44 3.8 0.0 7.3 125.2 9.53 0.00 - - - - - - - - - 12.4
Avg - - - - - 1.10 - 4.6 - - - 35.1 - - 0.3 0.0 - - 3.07 0.00 - - - - - - - - - -
Min 56.2 - 29.0 - 0.00 0.00 - 2.5 12.4 - - 26.6 89 5 0.0 0.0 0.0 0.0 0.00 0.00 - - - - - - - - - 12.2
Total - - - - - - - - - - - - - - 9.9 0.0 - - 92.15 0.00 - - - - - - - - - -

Last 7 Days

Upper Lake

Hourly Data | America/Los_Angeles
as of 4/19/21 6:22 PM PDT
Date & Time Temp (°F) Temp2 (°F) RH (%) Dew Pt (°F) Wet Bulb (°F) Wind Dir (°) Wind Spd (mph) Wind Gust (mph) WindChill (°F) Leaf Wet (mins) BatVolt (V) Latest Rain (In) Daily Rain (In) Daily Min Temp (°F) Daily Max Temp (°F) Daily Max Wind (mph) Daily Leaf Wet Hrs (hrs)
4/19/21 - 1800 72.1 72.0 26 35.8 52.4 WNW | 288 9.3 20.2 - 0.0 13.2 0.00 0.00 38.2 79.0 24.4 0.0
4/19/21 - 1700 74.4 74.2 28 38.9 54.2 WNW | 293 12.4 24.4 - 0.0 13.2 0.00 0.00 38.2 79.0 24.4 0.0
4/19/21 - 1600 77.6 77.5 27 41.0 55.9 WNW | 300 10.1 21.3 - 0.0 13.2 0.00 0.00 38.2 79.0 21.3 0.0
4/19/21 - 1500 78.2 78.2 24 38.6 55.2 WNW | 290 8.7 17.1 - 0.0 13.2 0.00 0.00 38.2 79.0 19.0 0.0
4/19/21 - 1400 76.7 77.0 23 36.4 54.0 WNW | 286 8.6 17.2 - 0.0 13.2 0.00 0.00 38.2 78.1 19.0 0.0
4/19/21 - 1300 74.8 75.0 24 35.3 53.0 WNW | 293 10.0 19.0 - 0.0 13.1 0.00 0.00 38.2 76.1 19.0 0.0
4/19/21 - 1200 72.4 72.6 25 34.4 52.0 WNW | 284 9.1 16.4 - 0.0 13.1 0.00 0.00 38.2 73.5 16.4 0.0
4/19/21 - 1100 70.5 70.5 28 36.1 52.0 NW | 315 5.1 15.6 - 0.0 13.1 0.00 0.00 38.2 71.2 15.6 0.0
4/19/21 - 1000 66.0 66.0 37 39.0 51.6 W | 275 3.0 7.7 - 0.0 13.2 0.00 0.00 38.2 69.0 7.7 0.0
4/19/21 - 0900 57.6 58.1 54 40.9 49.2 ENE | 70 0.7 2.4 - 0.0 13.3 0.00 0.00 38.2 62.9 7.0 0.0
4/19/21 - 0800 44.6 45.3 89 41.4 43.4 NNE | 28 1.9 6.8 - 0.0 12.7 0.00 0.00 38.2 50.8 7.0 0.0
4/19/21 - 0700 38.9 38.7 99 38.6 38.9 NW | 305 0.6 3.5 - 0.0 12.4 0.00 0.00 38.2 49.2 7.0 0.0
4/19/21 - 0600 40.3 39.9 97 39.6 40.2 NNW | 330 0.1 2.1 - 0.0 12.4 0.00 0.00 39.4 49.2 7.0 0.0
4/19/21 - 0500 42.1 41.9 93 40.3 41.6 NE | 48 1.1 3.3 - 0.0 12.5 0.00 0.00 40.9 49.2 7.0 0.0
4/19/21 - 0400 43.6 43.3 88 40.3 42.3 N | 359 0.9 3.7 - 0.0 12.5 0.00 0.00 42.8 49.2 7.0 0.0
4/19/21 - 0300 45.6 45.4 80 39.9 43.2 ENE | 67 1.2 4.2 - 0.0 12.5 0.00 0.00 44.3 49.2 7.0 0.0
4/19/21 - 0200 47.4 47.2 76 40.3 44.3 NNE | 27 2.6 7.0 - 0.0 12.5 0.00 0.00 46.4 49.2 7.0 0.0
4/19/21 - 0100 50.8 50.6 64 38.9 45.3 NE | 35 3.4 9.4 - 0.0 12.6 0.00 0.00 35.7 82.7 22.8 0.0
4/19/21 - 0000 54.5 54.3 52 36.6 46.0 NNE | 29 4.3 8.7 - 0.0 12.6 0.00 0.00 35.7 82.7 22.8 0.0
4/18/21 - 2300 58.6 59.0 39 33.5 46.6 NNE | 19 5.1 10.0 - 0.0 12.6 0.00 0.00 35.7 82.7 22.8 0.0
4/18/21 - 2200 56.4 55.9 50 37.7 47.4 NNE | 13 2.1 6.6 - 0.0 12.6 0.00 0.00 35.7 82.7 22.8 0.0
4/18/21 - 2100 66.7 66.0 24 28.3 48.2 N | 349 3.8 13.0 - 0.0 12.6 0.00 0.00 35.7 82.7 22.8 0.0
4/18/21 - 2000 71.5 71.4 17 24.1 48.7 NW | 305 9.3 21.5 - 0.0 12.7 0.00 0.00 35.7 82.7 22.8 0.0
4/18/21 - 1900 75.5 75.3 15 24.2 50.1 WNW | 290 7.8 21.5 - 0.0 12.8 0.00 0.00 35.7 82.7 22.8 0.0
4/18/21 - 1800 78.0 77.8 15 25.9 51.3 WNW | 289 8.3 22.8 - 0.0 13.1 0.00 0.00 35.7 82.7 22.8 0.0
4/18/21 - 1700 80.5 80.4 13 25.0 51.8 WNW | 285 8.4 19.4 - 0.0 13.1 0.00 0.00 35.7 82.7 19.7 0.0
4/18/21 - 1600 81.5 81.4 13 25.4 52.2 W | 271 8.0 18.6 - 0.0 13.1 0.00 0.00 35.7 82.7 19.7 0.0
4/18/21 - 1500 81.8 81.7 11 22.2 51.6 W | 260 6.9 19.7 - 0.0 13.1 0.00 0.00 35.7 82.7 19.7 0.0
4/18/21 - 1400 80.5 80.8 12 22.7 51.4 W | 264 7.4 14.9 - 0.0 13.1 0.00 0.00 35.7 81.5 18.1 0.0
4/18/21 - 1300 79.2 79.2 12 22.2 50.8 WNW | 301 8.6 18.1 - 0.0 13.1 0.00 0.00 35.7 79.9 18.1 0.0
4/18/21 - 1200 75.7 75.3 25 35.9 53.8 S | 188 4.6 13.6 - 0.0 13.1 0.00 0.00 35.7 79.0 13.6 0.0
4/18/21 - 1100 69.4 68.4 35 40.4 53.3 SSE | 148 3.4 6.8 - 0.0 13.1 0.00 0.00 35.7 72.0 6.8 0.0
4/18/21 - 1000 62.7 62.1 43 40.0 50.8 SE | 136 2.0 4.8 - 0.0 13.2 0.00 0.00 35.7 66.1 5.6 0.0
4/18/21 - 0900 55.3 55.0 55 39.2 47.4 SSW | 210 0.8 3.8 - 0.0 13.3 0.00 0.00 35.7 60.3 5.6 0.0
4/18/21 - 0800 41.3 42.2 93 39.2 40.5 WNW | 295 0.5 3.3 - 0.0 12.7 0.00 0.00 35.7 48.1 5.6 0.0
4/18/21 - 0700 36.6 36.4 96 35.6 36.2 NNW | 344 0.9 3.8 - 0.0 12.4 0.00 0.00 35.7 43.9 5.6 0.0
4/18/21 - 0600 37.4 37.2 94 35.7 36.7 NW | 310 1.3 5.6 - 0.0 12.4 0.00 0.00 36.6 43.9 5.6 0.0
4/18/21 - 0500 38.6 38.4 92 36.5 37.8 NW | 304 1.9 5.2 - 0.0 12.5 0.00 0.00 37.4 43.9 5.2 0.0
4/18/21 - 0400 39.6 39.4 89 36.6 38.4 NNW | 338 1.1 3.7 - 0.0 12.5 0.00 0.00 37.9 43.9 5.0 0.0
4/18/21 - 0300 40.7 40.6 88 37.4 39.4 NNW | 327 1.4 5.0 - 0.0 12.5 0.00 0.00 39.6 43.9 5.0 0.0
4/18/21 - 0200 42.3 42.2 82 37.2 40.2 NW | 309 1.6 4.6 - 0.0 12.5 0.00 0.00 41.0 43.9 4.6 0.0
4/18/21 - 0100 44.6 44.5 74 37.0 41.3 NNW | 333 1.4 5.7 - 0.0 12.5 0.00 0.00 38.5 79.9 17.4 1.4
4/18/21 - 0000 48.1 47.7 65 36.7 43.0 NNW | 341 1.5 5.6 - 0.0 12.6 0.00 0.00 38.5 79.9 17.4 1.4
4/17/21 - 2300 51.5 51.2 56 36.1 44.4 NNW | 340 2.7 7.0 - 0.0 12.6 0.00 0.00 38.5 79.9 17.4 1.4
4/17/21 - 2200 54.6 54.4 48 35.3 45.5 NW | 315 1.9 7.2 - 0.0 12.6 0.00 0.00 38.5 79.9 17.4 1.4
4/17/21 - 2100 62.9 62.1 31 31.3 47.6 NNW | 336 3.3 10.4 - 0.0 12.6 0.00 0.00 38.5 79.9 17.4 1.4
4/17/21 - 2000 69.9 69.6 21 27.7 49.1 WNW | 288 8.1 15.6 - 0.0 12.7 0.00 0.00 38.5 79.9 17.4 1.4
4/17/21 - 1900 74.3 74.1 18 27.9 50.6 WNW | 285 8.4 17.0 - 0.0 12.8 0.00 0.00 38.5 79.9 17.4 1.4
4/17/21 - 1800 77.4 77.1 16 27.8 51.7 NW | 305 7.3 14.2 - 0.0 13.2 0.00 0.00 38.5 79.9 17.4 1.4
4/17/21 - 1700 79.2 79.3 8 11.9 49.1 ENE | 68 6.5 14.5 - 0.0 13.1 0.00 0.00 38.5 79.9 17.4 1.4
4/17/21 - 1600 79.1 79.2 9 14.1 49.4 ENE | 72 8.0 17.3 - 0.0 13.1 0.00 0.00 38.5 79.7 17.4 1.4
4/17/21 - 1500 78.4 78.6 10 16.8 49.6 ENE | 77 7.5 14.7 - 0.0 13.2 0.00 0.00 38.5 79.2 17.4 1.4
4/17/21 - 1400 77.2 77.4 11 17.6 49.3 ENE | 67 7.0 17.4 - 0.0 13.1 0.00 0.00 38.5 78.3 17.4 1.4
4/17/21 - 1300 76.3 76.5 12 20.6 49.6 ENE | 64 6.6 15.6 - 0.0 13.1 0.00 0.00 38.5 77.4 15.6 1.4
4/17/21 - 1200 74.8 74.9 16 25.1 50.2 NE | 50 4.4 13.3 - 0.0 13.1 0.00 0.00 38.5 76.6 13.3 1.4
4/17/21 - 1100 71.2 70.7 27 34.7 51.9 SSE | 162 1.8 4.8 - 0.0 13.1 0.00 0.00 38.5 74.3 11.1 1.4
4/17/21 - 1000 62.6 62.7 46 41.6 51.5 ESE | 114 1.7 4.8 - 0.0 13.2 0.00 0.00 38.5 66.8 11.1 1.4
4/17/21 - 0900 53.6 53.8 67 42.6 48.3 SSE | 167 2.1 6.5 - 0.0 13.3 0.00 0.00 38.5 59.2 11.1 1.4
4/17/21 - 0800 44.2 44.8 89 41.2 43.1 WSW | 246 2.7 9.1 - 0.0 12.7 0.00 0.00 38.5 47.9 11.1 1.4
4/17/21 - 0700 40.7 40.8 96 39.6 40.4 NNW | 336 3.0 11.1 - 28.7 12.4 0.00 0.00 38.5 45.2 11.1 1.4
4/17/21 - 0600 39.2 39.0 100 39.1 39.3 N | 350 1.2 5.5 - 53.6 12.4 0.00 0.00 38.5 45.2 6.1 0.9
4/17/21 - 0500 40.3 40.2 99 40.1 40.4 NW | 304 1.6 6.1 - 0.0 12.5 0.00 0.00 39.4 45.2 6.1 0.0
4/17/21 - 0400 41.6 41.3 98 41.0 41.6 NW | 324 0.8 4.6 - 0.0 12.5 0.00 0.00 40.6 45.2 5.3 0.0
4/17/21 - 0300 42.7 42.6 94 41.0 42.2 NNW | 342 1.2 5.0 - 0.0 12.5 0.00 0.00 41.7 45.2 5.3 0.0
4/17/21 - 0200 44.0 43.7 94 42.3 43.5 N | 349 1.8 5.3 - 0.0 12.5 0.00 0.00 42.5 45.2 5.3 0.0
4/17/21 - 0100 45.9 45.7 87 42.3 44.5 N | 354 1.3 3.8 - 0.0 12.6 0.00 0.00 37.1 77.0 21.7 4.4
4/17/21 - 0000 48.3 47.9 81 42.7 45.9 NNE | 23 1.5 4.3 - 0.0 12.6 0.00 0.00 37.1 77.0 21.7 4.4
4/16/21 - 2300 52.1 52.1 62 39.5 46.2 N | 357 3.1 6.9 - 0.0 12.6 0.00 0.00 37.1 77.0 21.7 4.4
4/16/21 - 2200 56.0 55.6 49 37.2 46.9 NNW | 334 3.0 10.3 - 0.0 12.6 0.00 0.00 37.1 77.0 21.7 4.4
4/16/21 - 2100 59.9 59.7 43 37.3 48.6 WNW | 301 4.2 11.5 - 0.0 12.6 0.00 0.00 37.1 77.0 21.7 4.4
4/16/21 - 2000 65.0 64.8 34 36.2 50.1 WNW | 294 7.2 14.8 - 0.0 12.7 0.00 0.00 37.1 77.0 21.7 4.4
4/16/21 - 1900 69.4 69.2 26 33.4 50.7 WNW | 296 9.5 20.2 - 0.0 12.9 0.00 0.00 37.1 77.0 21.7 4.4
4/16/21 - 1800 71.5 71.4 24 33.2 51.3 WNW | 296 10.8 21.7 - 0.0 13.2 0.00 0.00 37.1 77.0 21.7 4.4
4/16/21 - 1700 73.9 73.8 24 35.0 52.7 WNW | 298 9.3 21.5 - 0.0 13.2 0.00 0.00 37.1 77.0 21.5 4.4
4/16/21 - 1600 75.6 75.3 20 31.7 52.2 W | 281 6.6 17.1 - 0.0 13.2 0.00 0.00 37.1 77.0 17.1 4.4
4/16/21 - 1500 75.3 75.1 18 29.4 51.4 S | 188 4.4 11.3 - 0.0 13.2 0.00 0.00 37.1 76.6 14.6 4.4
4/16/21 - 1400 74.5 74.6 21 31.5 51.8 SE | 141 6.9 14.6 - 0.0 13.1 0.00 0.00 37.1 75.9 14.6 4.4
4/16/21 - 1300 71.7 71.4 27 35.7 52.2 SSE | 154 5.4 10.0 - 0.0 13.1 0.00 0.00 37.1 73.3 10.0 4.4
4/16/21 - 1200 68.8 68.0 34 39.4 52.7 SSE | 163 4.5 8.8 - 0.0 13.1 0.00 0.00 37.1 70.9 8.8 4.4
4/16/21 - 1100 64.5 64.0 37 37.4 50.4 SE | 145 2.4 6.2 - 0.0 13.1 0.00 0.00 37.1 67.9 6.2 4.4
4/16/21 - 1000 58.0 58.4 45 37.0 47.7 ESE | 118 1.6 4.6 - 0.0 13.2 0.00 0.00 37.1 60.9 5.2 4.4
4/16/21 - 0900 50.5 51.2 69 40.5 45.9 ESE | 110 1.2 3.4 - 10.6 13.4 0.00 0.00 37.1 54.7 5.2 4.4
4/16/21 - 0800 41.3 42.1 99 41.1 41.5 NW | 320 0.2 1.6 - 60.0 12.7 0.00 0.00 37.1 45.8 5.2 4.3
4/16/21 - 0700 37.6 37.4 100 37.6 37.7 NW | 313 0.3 2.2 - 60.0 12.4 0.00 0.00 37.1 43.0 5.2 3.3
4/16/21 - 0600 38.0 37.9 100 37.9 38.1 NW | 316 0.6 3.5 - 60.0 12.4 0.00 0.00 37.5 43.0 5.2 2.3
4/16/21 - 0500 39.0 38.8 100 38.9 39.1 NW | 312 0.6 2.8 - 60.0 12.5 0.00 0.00 38.2 43.0 5.2 1.3
4/16/21 - 0400 40.1 39.9 99 39.8 40.2 NW | 311 0.3 1.9 - 15.8 12.5 0.00 0.00 39.6 43.0 5.2 0.3
4/16/21 - 0300 41.2 40.9 97 40.4 41.1 NNW | 338 0.7 5.2 - 0.0 12.5 0.00 0.00 40.7 43.0 5.2 0.0
4/16/21 - 0200 41.6 41.6 93 39.7 41.0 NW | 313 1.6 4.2 - 0.0 12.5 0.00 0.00 40.8 43.0 4.2 0.0
4/16/21 - 0100 43.6 43.5 89 40.4 42.4 WNW | 296 1.6 5.4 - 0.0 12.6 0.00 0.00 33.9 72.8 18.2 0.0
4/16/21 - 0000 44.9 44.7 85 40.8 43.2 NW | 310 1.5 5.5 - 0.0 12.6 0.00 0.00 33.9 72.8 18.2 0.0
4/15/21 - 2300 46.2 46.0 84 41.5 44.3 NW | 315 1.2 4.7 - 0.0 12.6 0.00 0.00 33.9 72.8 18.2 0.0
4/15/21 - 2200 49.6 49.2 67 38.6 44.6 NW | 314 1.8 4.7 - 0.0 12.6 0.00 0.00 33.9 72.8 18.2 0.0
4/15/21 - 2100 56.6 56.3 45 35.1 46.3 WNW | 303 4.3 12.5 - 0.0 12.6 0.00 0.00 33.9 72.8 18.2 0.0
4/15/21 - 2000 60.4 60.3 42 37.0 48.7 WNW | 293 8.3 14.2 - 0.0 12.7 0.00 0.00 33.9 72.8 18.2 0.0
4/15/21 - 1900 65.3 65.0 35 36.9 50.5 WNW | 282 8.0 18.2 - 0.0 12.9 0.00 0.00 33.9 72.8 18.2 0.0
4/15/21 - 1800 70.7 69.4 17 24.2 48.5 S | 172 5.6 13.3 - 0.0 13.2 0.00 0.00 33.9 72.8 13.7 0.0
4/15/21 - 1700 71.8 70.4 17 24.7 49.0 SSE | 164 5.8 12.5 - 0.0 13.2 0.00 0.00 33.9 72.8 13.7 0.0
4/15/21 - 1600 71.6 70.6 17 24.1 48.8 SSW | 197 4.7 11.5 - 0.0 13.2 0.00 0.00 33.9 72.8 13.7 0.0
4/15/21 - 1500 70.2 70.0 17 23.5 48.2 SSW | 204 6.1 13.7 - 0.0 13.2 0.00 0.00 33.9 71.3 13.7 0.0
4/15/21 - 1400 68.9 69.0 18 23.4 47.7 S | 181 6.1 12.6 - 0.0 13.2 0.00 0.00 33.9 69.7 12.6 0.0
4/15/21 - 1300 66.4 66.5 28 32.0 49.2 SSE | 148 6.3 11.5 - 0.0 13.2 0.00 0.00 33.9 68.2 11.5 0.0
4/15/21 - 1200 63.0 62.9 35 35.0 48.9 SSE | 161 4.2 10.7 - 0.0 13.2 0.00 0.00 33.9 65.0 10.7 0.0
4/15/21 - 1100 59.5 59.3 37 33.1 46.8 SE | 126 2.7 7.5 - 0.0 13.2 0.00 0.00 33.9 61.4 7.5 0.0
4/15/21 - 1000 54.6 54.8 52 37.2 46.3 W | 269 1.0 5.3 - 0.0 13.2 0.00 0.00 33.9 57.9 5.3 0.0
4/15/21 - 0900 49.1 49.1 63 37.1 43.7 E | 84 0.7 3.5 - 0.0 13.4 0.00 0.00 33.9 53.1 5.2 0.0
4/15/21 - 0800 38.1 39.0 94 36.7 37.6 NW | 307 1.0 5.2 - 0.0 12.7 0.00 0.00 33.9 44.6 5.2 0.0
4/15/21 - 0700 34.6 34.7 98 34.3 34.5 NW | 321 0.9 2.8 - 0.0 12.4 0.00 0.00 33.9 39.7 4.3 0.0
4/15/21 - 0600 35.2 35.0 97 34.3 34.8 NNW | 338 1.8 4.1 - 0.0 12.4 0.00 0.00 34.5 39.7 4.3 0.0
4/15/21 - 0500 35.6 35.8 95 34.4 35.1 NNW | 328 1.2 4.3 - 0.0 12.5 0.00 0.00 34.7 39.7 4.3 0.0
4/15/21 - 0400 36.1 35.9 92 33.9 35.2 NW | 310 0.7 3.3 - 0.0 12.5 0.00 0.00 35.1 39.7 4.1 0.0
4/15/21 - 0300 37.2 37.1 90 34.4 36.1 NW | 318 1.0 3.6 - 0.0 12.5 0.00 0.00 36.3 39.7 4.1 0.0
4/15/21 - 0200 38.3 38.0 87 34.9 36.9 NW | 324 1.3 4.1 - 0.0 12.5 0.00 0.00 37.5 39.7 4.1 0.0
4/15/21 - 0100 40.2 40.1 80 34.5 37.8 NW | 324 1.8 5.2 - 0.0 12.5 0.00 0.00 34.2 69.8 24.8 0.0
4/15/21 - 0000 41.7 41.5 75 34.3 38.6 NNW | 333 1.8 4.3 - 0.0 12.6 0.00 0.00 34.2 69.8 24.8 0.0
4/14/21 - 2300 44.4 44.4 64 32.9 39.5 NW | 312 2.0 5.9 - 0.0 12.6 0.00 0.00 34.2 69.8 24.8 0.0
4/14/21 - 2200 47.8 47.6 53 31.2 40.7 NW | 325 1.8 5.7 - 0.0 12.6 0.00 0.00 34.2 69.8 24.8 0.0
4/14/21 - 2100 52.9 52.7 40 28.8 42.4 NNW | 330 3.3 7.1 - 0.0 12.6 0.00 0.00 34.2 69.8 24.8 0.0
4/14/21 - 2000 59.6 59.6 27 25.4 44.4 NW | 308 5.5 10.2 - 0.0 12.7 0.00 0.00 34.2 69.8 24.8 0.0
4/14/21 - 1900 63.3 63.5 23 25.1 45.9 WNW | 298 7.0 15.3 - 0.0 12.9 0.00 0.00 34.2 69.8 24.8 0.0
4/14/21 - 1800 63.9 64.4 25 27.2 46.7 W | 281 8.9 21.9 - 0.0 13.3 0.00 0.00 34.2 69.8 24.8 0.0
4/14/21 - 1700 64.9 65.5 25 28.6 47.5 WNW | 286 10.3 24.8 - 0.0 13.3 0.00 0.00 34.2 69.8 24.8 0.0
4/14/21 - 1600 66.7 66.8 21 25.3 47.3 S | 178 6.1 21.9 - 0.0 13.3 0.00 0.00 34.2 69.8 21.9 0.0
4/14/21 - 1500 67.4 67.4 19 23.2 47.0 SE | 138 7.1 13.7 - 0.0 13.2 0.00 0.00 34.2 69.8 16.6 0.0
4/14/21 - 1400 66.8 66.5 20 24.9 47.2 SSE | 155 8.1 16.1 - 0.0 13.2 0.00 0.00 34.2 67.9 16.6 0.0
4/14/21 - 1300 65.2 65.2 21 23.7 46.3 SSE | 148 6.0 16.6 - 0.0 13.2 0.00 0.00 34.2 66.6 16.6 0.0
4/14/21 - 1200 63.2 63.2 24 25.3 45.9 SSE | 165 4.5 12.0 - 0.0 13.1 0.00 0.00 34.2 65.0 12.0 0.0
4/14/21 - 1100 60.8 60.5 28 27.2 45.4 SE | 142 3.4 9.0 - 0.0 13.2 0.00 0.00 34.2 62.6 9.0 0.0
4/14/21 - 1000 57.3 56.8 37 31.4 45.3 ESE | 123 2.6 8.0 - 0.0 13.2 0.00 0.00 34.2 58.9 8.0 0.0
4/14/21 - 0900 51.6 51.9 49 32.7 43.2 ESE | 109 0.7 3.4 - 0.0 13.4 0.00 0.00 34.2 56.2 6.4 0.0
4/14/21 - 0800 38.3 38.8 88 34.9 36.9 NNW | 347 0.3 2.3 - 0.0 12.7 0.00 0.00 34.2 44.6 6.4 0.0
4/14/21 - 0700 35.0 34.8 90 32.3 33.9 NNW | 331 0.8 4.7 - 0.0 12.4 0.00 0.00 34.2 40.5 6.4 0.0
4/14/21 - 0600 36.6 36.5 83 32.0 34.8 WNW | 302 1.1 4.6 - 0.0 12.4 0.00 0.00 35.2 40.5 6.4 0.0
4/14/21 - 0500 36.9 37.4 84 32.4 35.1 WNW | 299 1.9 5.0 - 0.0 12.5 0.00 0.00 35.2 40.5 6.4 0.0
4/14/21 - 0400 38.2 39.1 79 32.3 35.8 N | 8 2.4 6.4 - 0.0 12.5 0.00 0.00 36.6 40.5 6.4 0.0
4/14/21 - 0300 38.8 39.0 82 33.7 36.7 NNW | 348 2.2 6.4 - 0.0 12.5 0.00 0.00 37.6 40.5 6.4 0.0
4/14/21 - 0200 39.9 39.7 79 33.9 37.4 NNW | 328 1.7 5.3 - 0.0 12.5 0.00 0.00 38.9 40.5 5.3 0.0
4/14/21 - 0100 41.5 41.3 76 34.5 38.6 NNW | 336 1.9 5.9 - 0.0 12.6 0.00 0.00 39.6 71.4 27.0 0.0
4/14/21 - 0000 43.3 43.1 68 33.5 39.2 NNW | 331 2.2 6.1 - 0.0 12.6 0.00 0.00 39.6 71.4 27.0 0.0
4/13/21 - 2300 46.4 46.2 59 32.6 40.5 N | 1 2.2 6.4 - 0.0 12.6 0.00 0.00 39.6 71.4 27.0 0.0
4/13/21 - 2200 52.5 52.3 40 28.5 42.1 N | 356 2.4 9.4 - 0.0 12.6 0.00 0.00 39.6 71.4 27.0 0.0
4/13/21 - 2100 56.7 56.3 30 25.7 43.2 NW | 326 2.0 9.4 - 0.0 12.6 0.00 0.00 39.6 71.4 27.0 0.0
4/13/21 - 2000 60.4 60.4 23 22.8 44.1 WNW | 303 7.6 21.7 - 0.0 12.7 0.00 0.00 39.6 71.4 27.0 0.0
4/13/21 - 1900 64.4 64.2 20 22.6 45.7 WNW | 288 8.5 19.0 - 0.0 12.9 0.00 0.00 39.6 71.4 27.0 0.0
4/13/21 - 1800 67.1 67.0 21 26.2 47.7 WNW | 286 9.1 22.4 - 0.0 13.2 0.00 0.00 39.6 71.4 27.0 0.0
4/13/21 - 1700 70.0 69.9 21 28.0 49.2 WNW | 284 8.5 25.9 - 0.0 13.2 0.00 0.00 39.6 71.4 27.0 0.0
4/13/21 - 1600 70.4 70.4 18 25.4 48.7 WNW | 299 6.6 17.2 - 0.0 13.2 0.00 0.00 39.6 71.4 27.0 0.0
4/13/21 - 1500 69.5 69.8 22 28.7 49.3 W | 276 6.7 15.2 - 0.0 13.2 0.00 0.00 39.6 70.7 27.0 0.0
4/13/21 - 1400 68.2 68.5 25 31.4 49.6 WNW | 282 7.8 16.9 - 0.0 13.2 0.00 0.00 39.6 69.0 27.0 0.0
4/13/21 - 1300 66.3 66.6 24 28.7 48.1 WNW | 298 7.7 18.1 - 0.0 13.2 0.00 0.00 39.6 68.0 27.0 0.0
4/13/21 - 1200 63.2 63.6 28 29.5 47.1 WNW | 294 9.6 18.2 - 0.0 13.2 0.00 0.00 39.6 65.1 27.0 0.0
4/13/21 - 1100 59.3 59.5 31 28.6 45.2 WNW | 294 11.5 22.1 - 0.0 13.2 0.00 0.00 39.6 61.6 27.0 0.0
4/13/21 - 1000 55.5 55.7 34 27.8 43.3 WNW | 293 14.0 27.0 - 0.0 13.3 0.00 0.00 39.6 57.6 27.0 0.0
4/13/21 - 0900 52.0 52.1 43 30.1 42.4 WNW | 299 11.1 23.0 - 0.0 13.4 0.00 0.00 39.6 54.0 25.0 0.0
4/13/21 - 0800 48.7 48.9 53 32.1 41.5 NW | 308 10.7 25.0 44.2 0.0 12.7 0.00 0.00 39.6 50.8 25.0 0.0
4/13/21 - 0700 43.6 43.3 68 33.6 39.4 NNE | 14 4.7 15.4 40.9 0.0 12.4 0.00 0.00 39.6 46.4 15.4 0.0
4/13/21 - 0600 43.2 43.2 71 34.5 39.5 NNE | 28 4.8 14.8 40.4 0.0 12.4 0.00 0.00 39.6 46.4 14.8 0.0
4/13/21 - 0500 41.8 41.7 81 36.3 39.5 NNE | 26 4.6 9.6 38.8 0.0 12.5 0.00 0.00 40.2 45.7 9.6 0.0
4/13/21 - 0400 42.6 42.7 81 37.1 40.3 NE | 34 4.7 8.6 39.8 0.0 12.5 0.00 0.00 40.9 45.7 8.9 0.0
4/13/21 - 0300 42.7 42.6 84 38.2 40.8 NE | 36 4.0 8.9 40.4 0.0 12.5 0.00 0.00 40.9 45.7 8.9 0.0
4/13/21 - 0200 42.6 42.3 87 38.9 41.1 NNE | 33 2.2 6.4 - 0.0 12.5 0.00 0.00 41.4 43.6 6.4 0.0
4/13/21 - 0100 43.7 43.4 83 38.9 41.7 NNE | 16 1.4 5.8 - 0.0 12.6 0.00 0.00 36.7 80.0 19.5 3.4
4/13/21 - 0000 46.1 45.7 75 38.7 42.9 NNW | 337 1.2 4.2 - 0.0 12.6 0.00 0.00 36.7 80.0 19.5 3.4
4/12/21 - 2300 48.8 48.4 65 37.6 43.8 NW | 315 2.1 4.6 - 0.0 12.6 0.00 0.00 36.7 80.0 19.5 3.4
4/12/21 - 2200 52.9 52.3 52 35.7 44.9 NW | 319 1.9 5.6 - 0.0 12.6 0.00 0.00 36.7 80.0 19.5 3.4
4/12/21 - 2100 59.4 58.7 36 32.3 46.5 NW | 324 4.5 7.8 - 0.0 12.6 0.00 0.00 36.7 80.0 19.5 3.4
4/12/21 - 2000 67.6 67.1 22 27.7 48.3 WNW | 302 7.1 14.4 - 0.0 12.7 0.00 0.00 36.7 80.0 19.5 3.4
4/12/21 - 1900 72.6 72.4 18 26.8 49.8 WNW | 300 8.8 18.4 - 0.0 12.9 0.00 0.00 36.7 80.0 19.5 3.4
Max 81.8 81.7 100 42.7 55.9 - 14.0 27.0 44.2 60.0 13.4 0.00 0.00 46.4 82.7 27.0 4.4
Avg 56.4 56.3 52 33.3 45.1 - 4.3 10.5 40.8 2.1 12.8 0.00 - - - - -
Min 34.6 34.7 8 11.9 33.9 - 0.1 1.6 38.8 0.0 12.4 0.00 0.00 33.9 39.7 4.1 0.0
Total - - - - - - - - - - - 0.00 - - - - -

Chilling & Growing Degree Days

Upper Lake

Daily Data | America/Los_Angeles
as of 4/19/21 6:22 PM PDT
Date Chilling <=45F (hrs) Chill Hrs 32-45F (hrs) Utah Chilling (Units) Chill Portions GDDs (DL) GDDs (Mx/Mn) Seas GDDs (DL) Seas GDDs (Smpl)
4/18/21 6.8 6.8 -4.0 98 13.7 9.2 147 88
4/17/21 7.3 7.3 -1.5 98 12.2 9.2 133 79
4/16/21 7.1 7.1 0.0 98 9.9 7.0 121 70
4/15/21 8.6 8.6 1.5 98 7.5 3.4 111 63
4/14/21 9.7 9.7 5.0 98 6.4 2.0 104 59
4/13/21 7.7 7.7 3.0 98 7.3 5.5 97 57
4/12/21 7.3 7.3 0.0 98 11.0 8.4 90 52
Max 9.7 9.7 5.0 98 13.7 9.2 - -
Avg 7.8 7.8 0.6 98 9.7 6.4 - -
Min 6.8 6.8 -4.0 98 6.4 2.0 - -
Total 54.5 54.5 4.0 - 68.1 44.7 - -
Calm: 0.0%

Upper Lake Climate Summary

Current Year

Current Year | Showing 1/1/21 - 4/18/21
as of 4/19/21 6:22 PM PDT
Temperature (°F) Precip (in) Days
Month Days Avg Max Avg Min Max Max Min Min Total Daily Min Temp < 28 Daily Min Temp < 32 Daily Max Temp > 90 Daily Max Temp > 100 Daily Rain > 0.01 Daily Rain > 0.1
Jan 2021 31 56 35.2 77 22.7 4.45 4 9 0 0 17 10
Feb 2021 28 60.1 33.3 74 27.7 2.42 3 15 0 0 10 8
Mar 2021 31 61 31.9 77.8 26.9 2.75 5 18 0 0 7 6
Apr 2021 18 74 35.8 82.7 32.1 0 0 0 0 0 0 0
Total 108 - - - - 9.62 12 42 0 0 34 24
Average 27 62.8 34 - - 2.4 3 10.5 0 0 8.5 6
Maximum 31 74 35.8 82.7 - 4.45 5 18 0 0 17 10
Minimum 18 56 31.9 - 22.7 0 0 0 0 0 0 0

Upper Lake Climate Summary

Last Year

Last Year | Showing 1/1/20 - 12/31/20
as of 4/19/21 6:22 PM PDT
Temperature (°F) Precip (in) Days
Month Days Avg Max Avg Min Max Max Min Min Total Daily Min Temp < 28 Daily Min Temp < 32 Daily Max Temp > 90 Daily Max Temp > 100 Daily Rain > 0.01 Daily Rain > 0.1
Jan 2020 31 55.3 34.7 71.4 26.1 3.74 3 13 0 0 17 11
Feb 2020 29 67.3 31.5 77.7 24.4 0 2 18 0 0 0 0
Mar 2020 31 60.7 34.8 81 28.2 1.51 0 8 0 0 9 6
Apr 2020 30 70.7 42.8 86.2 27.9 1.49 1 2 0 0 5 4
May 2020 31 76.5 45.7 97.5 34.4 1.54 0 0 7 0 7 5
Jun 2020 30 85.9 51.7 104.1 37.6 0.01 0 0 12 3 0 0
Jul 2020 31 94.1 53.5 99.6 46.4 0 0 0 26 0 0 0
Aug 2020 31 94.8 56.1 105.6 48 0.11 0 0 27 3 2 0
Sep 2020 30 89.6 49.5 108.3 41.1 0 0 0 14 4 0 0
Oct 2020 31 86 42 97.7 32.8 0 0 0 11 0 0 0
Nov 2020 30 64.2 31.9 86.2 22.6 1.32 12 14 0 0 5 3
Dec 2020 31 59 31.1 73 25.5 1.75 9 22 0 0 8 6
Total 366 - - - - 11.47 27 77 97 10 53 35
Average 30.5 75.3 42.1 - - 0.96 2.2 6.4 8.1 0.8 4.4 2.9
Maximum 31 94.8 56.1 108.3 - 3.74 12 22 27 4 17 11
Minimum 29 55.3 31.1 - 22.6 0 0 0 0 0 0 0

Climate Summary 2019

Upper Lake

1/1/2019 - 12/31/2019 | Showing 1/1/19 - 12/31/19
as of 4/19/21 6:22 PM PDT
Temperature (°F) Precip (in) Days
Month Days Avg Max Avg Min Max Max Min Min Total Daily Min Temp < 28 Daily Min Temp < 32 Daily Max Temp > 90 Daily Max Temp > 100 Daily Rain > 0.01 Daily Rain > 0.1
Jan 2019 31 57.8 36.4 71.8 24.8 9.44 3 9 0 0 11 11
Feb 2019 28 49.6 34 57.1 23 15.92 8 12 0 0 19 16
Mar 2019 31 59.4 37.1 74 27.9 6.68 1 4 0 0 15 11
Apr 2019 30 71.5 44.9 89.7 37.6 0.94 0 0 0 0 8 2
May 2019 31 73.7 44.5 86.5 35.8 3.63 0 0 0 0 9 5
Jun 2019 30 87.2 50.8 97 39.1 0.01 0 0 12 0 0 0
Jul 2019 31 89.9 53.2 97.5 47.9 0.03 0 0 17 0 1 0
Aug 2019 31 91.7 53.8 98.8 48 0.01 0 0 21 0 0 0
Sep 2019 30 83.1 46.8 97.4 33.5 0.24 0 0 11 0 3 1
Oct 2019 31 77 34.1 88.6 22.1 0.03 4 10 0 0 1 0
Nov 2019 30 69.8 32.5 82.9 23.7 1.66 6 15 0 0 3 3
Dec 2019 31 53.7 37.7 61.9 24 6.33 4 10 0 0 17 10
Total 365 - - - - 44.92 26 60 61 0 87 59
Average 30.4 72 42.2 - - 3.74 2.2 5 5.1 0 7.2 4.9
Maximum 31 91.7 53.8 98.8 - 15.92 8 15 21 0 19 16
Minimum 28 49.6 32.5 - 22.1 0.01 0 0 0 0 0 0

Climate Summary 2018

Upper Lake

1/1/2018 - 12/31/2018 | Showing 1/1/18 - 12/31/18
as of 4/19/21 6:22 PM PDT
Temperature (°F) Precip (in) Days
Month Days Avg Max Avg Min Max Max Min Min Total Daily Min Temp < 28 Daily Min Temp < 32 Daily Max Temp > 90 Daily Max Temp > 100 Daily Rain > 0.01 Daily Rain > 0.1
Jan 2018 31 56.5 36.2 69.7 27.7 5.62 2 8 0 0 13 9
Feb 2018 28 62.4 29.1 78.7 20.6 0.9 13 19 0 0 3 2
Mar 2018 31 60.7 34 83.7 24.1 5.7 3 11 0 0 16 13
Apr 2018 30 69 39.5 84.5 30.2 4.78 0 1 0 0 8 5
May 2018 31 77.9 45.3 92.1 35.3 0.26 0 0 1 0 2 1
Jun 2018 30 86.3 47.6 97.4 37.7 0 0 0 11 0 0 0
Jul 2018 31 95.2 53.2 103.1 46.2 0 0 0 24 4 0 0
Aug 2018 31 90.9 50.3 97.2 46.6 0 0 0 18 0 0 0
Sep 2018 30 86.7 44.5 96.2 39.5 0 0 0 12 0 0 0
Oct 2018 31 77.7 40.7 85.6 31.9 1.25 0 1 0 0 4 3
Nov 2018 30 66.4 32.5 82.4 20.4 5.43 13 15 0 0 7 7
Dec 2018 31 55.2 33.6 63.7 26.1 3.34 4 14 0 0 12 7
Total 365 - - - - 27.28 35 69 66 4 65 47
Average 30.4 73.7 40.5 - - 2.27 2.9 5.8 5.5 0.3 5.4 3.9
Maximum 31 95.2 53.2 103.1 - 5.7 13 19 24 4 16 13
Minimum 28 55.2 29.1 - 20.4 0 0 0 0 0 0 0

Climate Summary 2017

Upper Lake

1/1/2017 - 12/31/2017 | Showing 1/1/17 - 12/31/17
as of 4/19/21 6:22 PM PDT
Temperature (°F) Precip (in) Days
Month Days Avg Max Avg Min Max Max Min Min Total Daily Min Temp < 28 Daily Min Temp < 32 Daily Max Temp > 90 Daily Max Temp > 100 Daily Rain > 0.01 Daily Rain > 0.1
Jan 2017 31 51.8 32.4 63.8 20.8 16.02 10 17 0 0 16 14
Feb 2017 27 55.9 37.8 69.2 24.2 10.98 4 8 0 0 16 14
Mar 2017 31 64.5 38.3 80.1 26.3 3.42 2 3 0 0 10 8
Apr 2017 30 65.8 40.3 83.8 31.1 4.03 0 2 0 0 12 7
May 2017 31 80.5 45 96.1 36.6 0 0 0 5 0 0 0
Jun 2017 30 87.6 51.4 104.7 39.8 0.21 0 0 12 6 1 1
Jul 2017 31 94.1 52.3 99.3 47.3 0 0 0 28 0 0 0
Aug 2017 31 95 54.2 103.7 47.6 0 0 0 29 4 0 0
Sep 2017 30 85.6 48.4 104.2 33.9 0.01 0 0 8 3 0 0
Oct 2017 31 79.2 36.3 90.6 27.2 0.37 1 5 1 0 1 1
Nov 2017 30 59.3 38.3 70.8 25.9 5.32 2 7 0 0 13 8
Dec 2017 31 60.1 27.5 71.2 21.7 0.13 19 30 0 0 2 0
Total 364 - - - - 40.49 38 72 83 13 71 53
Average 30.3 73.3 41.9 - - 3.37 3.2 6 6.9 1.1 5.9 4.4
Maximum 31 95 54.2 104.7 - 16.02 19 30 29 6 16 14
Minimum 27 51.8 27.5 - 20.8 0 0 0 0 0 0 0

Climate Summary 2016

Upper Lake

1/1/2016 - 12/31/2016 | Showing 1/1/16 - 12/31/16
as of 4/19/21 6:22 PM PDT
Temperature (°F) Precip (in) Days
Month Days Avg Max Avg Min Max Max Min Min Total Daily Min Temp < 28 Daily Min Temp < 32 Daily Max Temp > 90 Daily Max Temp > 100 Daily Rain > 0.01 Daily Rain > 0.1
Jan 2016 31 52.2 38.2 63.8 20.4 11.01 2 3 0 0 20 19
Feb 2016 29 66 36.2 79.5 29.8 1.62 0 4 0 0 5 4
Mar 2016 31 62.5 38.9 77.5 30.1 8.58 0 2 0 0 16 12
Apr 2016 30 71.2 40.1 85.2 32 1.4 0 0 0 0 6 4
May 2016 31 77.7 45.9 96.8 39.9 0.33 0 0 3 0 4 1
Jun 2016 30 87 48.5 99 42.7 0.47 0 0 13 0 2 1
Jul 2016 31 91.9 50.2 102.3 42.3 0 0 0 18 4 0 0
Aug 2016 31 93.4 49.3 99.5 42.9 0 0 0 26 0 0 0
Sep 2016 30 87.7 44.5 97.4 38.2 0 0 0 12 0 0 0
Oct 2016 31 68.7 43.5 87.2 34.3 6.53 0 0 0 0 14 13
Nov 2016 30 62.6 37.8 76.1 27.3 4.27 3 5 0 0 13 6
Dec 2016 31 53.5 29.6 65.6 19.9 7.22 14 23 0 0 8 7
Total 366 - - - - 41.43 19 37 72 4 88 67
Average 30.5 72.9 41.9 - - 3.45 1.6 3.1 6 0.3 7.3 5.6
Maximum 31 93.4 50.2 102.3 - 11.01 14 23 26 4 20 19
Minimum 29 52.2 29.6 - 19.9 0 0 0 0 0 0 0